Time;durP1;ratioP1;P1;durP2;ratioP2;P2;SDS_P1;SDS_P2;PMS_P1;PMS_P2;Temp;Humidity;BMP_temperature;BMP_pressure;BME280_temperature;BME280_humidity;BME280_pressure;Samples;Min_cycle;Max_cycle;Signal;HPM_P1;HPM_P2
2021/04/26 00:00:07;;;;;;;12.53;8.23;;;;;;;7.92;68.28;97655.52;1833944;78;21434;-77
2021/04/26 00:02:38;;;;;;;11.65;7.80;;;;;;;7.93;68.62;97653.72;1793819;79;21085;-77
2021/04/26 00:05:07;;;;;;;14.33;7.92;;;;;;;7.91;68.42;97653.78;1800304;80;21158;-77
2021/04/26 00:07:35;;;;;;;13.38;7.60;;;;;;;7.92;68.08;97660.80;1843072;78;21100;-77
2021/04/26 00:10:03;;;;;;;11.15;7.47;;;;;;;7.95;67.99;97661.17;1800315;79;21131;-77
2021/04/26 00:12:31;;;;;;;12.90;7.67;;;;;;;7.88;69.64;97669.69;1749220;79;21127;-77
2021/04/26 00:15:00;;;;;;;11.93;7.50;;;;;;;7.87;69.15;97668.39;1772352;80;21119;-77
2021/04/26 00:17:27;;;;;;;10.58;6.83;;;;;;;7.81;69.76;97671.19;1799510;80;21091;-77
2021/04/26 00:19:55;;;;;;;11.28;7.58;;;;;;;7.67;70.41;97677.64;1789793;80;21122;-76
2021/04/26 00:22:22;;;;;;;11.55;7.78;;;;;;;7.68;68.88;97674.09;1748978;82;21136;-77
2021/04/26 00:24:49;;;;;;;14.03;8.00;;;;;;;7.69;69.13;97673.66;1807563;79;21636;-77
2021/04/26 00:27:17;;;;;;;11.90;7.67;;;;;;;7.71;69.03;97673.16;1809904;78;21119;-77
2021/04/26 00:29:44;;;;;;;9.73;7.20;;;;;;;7.72;68.47;97679.72;1820039;78;21560;-77
2021/04/26 00:32:11;;;;;;;10.20;7.00;;;;;;;7.72;68.92;97682.36;1834818;78;21116;-77
2021/04/26 00:34:38;;;;;;;10.05;6.65;;;;;;;7.65;68.34;97669.77;1835341;78;21103;-77
2021/04/26 00:37:06;;;;;;;12.28;7.00;;;;;;;7.64;68.05;97671.98;1824995;78;21109;-77
2021/04/26 00:39:33;;;;;;;9.93;6.72;;;;;;;7.65;68.22;97671.55;1823666;78;21071;-77
2021/04/26 00:42:01;;;;;;;12.65;7.25;;;;;;;7.59;68.72;97683.09;1835160;77;21091;-77
2021/04/26 00:44:29;;;;;;;9.75;6.42;;;;;;;7.58;68.34;97683.13;1780209;80;21149;-78
2021/04/26 00:46:57;;;;;;;9.63;6.65;;;;;;;7.52;67.71;97675.77;1771461;81;21125;-78
2021/04/26 00:49:24;;;;;;;9.80;7.08;;;;;;;7.55;67.67;97679.26;1775939;80;21153;-78
2021/04/26 00:51:52;;;;;;;10.95;6.80;;;;;;;7.51;67.53;97681.95;1802891;79;21150;-79
2021/04/26 00:54:20;;;;;;;11.40;6.58;;;;;;;7.48;67.56;97688.60;1780723;80;21488;-79
2021/04/26 00:56:48;;;;;;;8.55;6.62;;;;;;;7.47;67.25;97687.34;1803032;80;21476;-77
2021/04/26 00:59:16;;;;;;;13.00;7.05;;;;;;;7.45;67.12;97684.73;1800159;80;21272;-76
2021/04/26 01:01:44;;;;;;;11.80;7.42;;;;;;;7.47;67.08;97688.66;1820154;77;21113;-76
2021/04/26 01:04:13;;;;;;;11.75;7.03;;;;;;;7.45;67.39;97691.33;1771602;81;21152;-77
2021/04/26 01:06:41;;;;;;;11.50;7.28;;;;;;;7.43;66.92;97693.11;1840837;78;21262;-77
2021/04/26 01:09:10;;;;;;;9.40;7.33;;;;;;;7.41;66.91;97696.24;1841440;78;21260;-76
2021/04/26 01:12:04;;;;;;;8.68;6.08;;;;;;;7.39;66.69;97702.86;1803804;78;21135;-77
2021/04/26 01:14:47;;;;;;;13.38;7.60;;;;;;;7.38;66.86;97707.72;1810044;79;21480;-78
2021/04/26 01:17:30;;;;;;;10.85;7.00;;;;;;;7.31;67.07;97702.14;1810053;79;21608;-78
2021/04/26 01:20:43;;;;;;;11.03;7.03;;;;;;;7.23;67.41;97719.44;1820396;78;21088;-78
2021/04/26 01:23:58;;;;;;;10.65;7.55;;;;;;;7.23;66.99;97710.22;1741170;82;21161;-78
2021/04/26 01:26:48;;;;;;;11.33;7.17;;;;;;;7.21;66.66;97723.02;1791260;78;21120;-78
2021/04/26 01:29:56;;;;;;;11.70;7.37;;;;;;;7.10;66.53;97716.66;1825720;78;21113;-78
2021/04/26 01:32:38;;;;;;;11.75;7.45;;;;;;;7.05;66.56;97723.80;1839596;78;21107;-78
2021/04/26 01:35:12;;;;;;;10.23;6.95;;;;;;;6.96;66.43;97721.75;1843103;78;21633;-78
2021/04/26 01:37:42;;;;;;;9.83;6.87;;;;;;;6.88;66.31;97718.84;1842914;78;21275;-78
2021/04/26 01:40:14;;;;;;;10.30;7.28;;;;;;;6.77;66.56;97713.30;1820103;78;21625;-78
2021/04/26 01:42:47;;;;;;;10.55;7.33;;;;;;;6.69;66.06;97716.55;1794707;79;21119;-78
2021/04/26 01:45:16;;;;;;;14.73;8.13;;;;;;;6.60;65.91;97719.77;1810770;78;21503;-78
2021/04/26 01:47:50;;;;;;;10.05;7.33;;;;;;;6.53;66.00;97718.59;1839999;78;21116;-78
2021/04/26 01:50:21;;;;;;;11.35;7.80;;;;;;;6.49;65.78;97723.48;1840108;78;21064;-77
2021/04/26 01:52:50;;;;;;;9.43;6.75;;;;;;;6.45;66.21;97720.89;1818379;78;21101;-78
2021/04/26 01:55:24;;;;;;;11.93;8.03;;;;;;;6.46;65.76;97720.02;1819200;77;21597;-78
2021/04/26 01:57:53;;;;;;;11.40;7.10;;;;;;;6.41;65.77;97710.02;1809805;79;21101;-77
2021/04/26 02:00:28;;;;;;;9.18;7.42;;;;;;;6.38;66.73;97716.64;1808252;79;21498;-77
2021/04/26 02:03:02;;;;;;;11.78;7.58;;;;;;;6.35;65.84;97719.31;1842195;78;21101;-77
2021/04/26 02:05:33;;;;;;;9.78;6.92;;;;;;;6.32;65.95;97718.07;1836412;78;21235;-77
2021/04/26 02:08:06;;;;;;;11.55;7.87;;;;;;;6.28;65.89;97717.70;1800301;79;21156;-77
2021/04/26 02:10:45;;;;;;;11.25;7.17;;;;;;;6.26;65.64;97722.98;1813311;77;21609;-77
2021/04/26 02:13:18;;;;;;;10.30;6.78;;;;;;;6.27;65.59;97722.08;1840188;78;21449;-77
2021/04/26 02:15:52;;;;;;;10.87;8.23;;;;;;;6.26;65.46;97722.09;1840550;76;21120;-77
2021/04/26 02:18:21;;;;;;;12.55;7.50;;;;;;;6.18;65.49;97723.11;1833439;77;21266;-78
2021/04/26 02:20:49;;;;;;;11.65;7.85;;;;;;;6.13;65.60;97725.38;1817022;78;21147;-76
2021/04/26 02:23:17;;;;;;;10.05;7.37;;;;;;;6.06;65.56;97727.23;1831755;78;21589;-77
2021/04/26 02:25:45;;;;;;;11.33;7.45;;;;;;;6.03;66.45;97727.30;1792252;79;21087;-77
2021/04/26 02:28:14;;;;;;;12.28;7.83;;;;;;;5.95;65.85;97730.88;1809793;79;21265;-77
2021/04/26 02:30:42;;;;;;;12.05;7.50;;;;;;;5.91;66.34;97731.84;1809190;78;21095;-76
2021/04/26 02:33:18;;;;;;;11.08;7.70;;;;;;;5.86;65.65;97727.06;1764627;81;21661;-77
2021/04/26 02:36:03;;;;;;;11.00;7.45;;;;;;;5.84;65.74;97724.91;1820839;79;22691;-77
2021/04/26 02:38:38;;;;;;;13.25;7.72;;;;;;;5.73;65.75;97732.10;1794292;80;21130;-77
2021/04/26 02:41:14;;;;;;;11.57;7.47;;;;;;;5.66;65.97;97728.69;1790393;80;21123;-77
2021/04/26 02:43:46;;;;;;;12.13;8.25;;;;;;;5.62;65.99;97729.61;1762809;80;21128;-77
2021/04/26 02:46:16;;;;;;;11.68;8.10;;;;;;;5.55;66.24;97713.94;1777401;80;21159;-77
2021/04/26 02:48:45;;;;;;;11.73;7.50;;;;;;;5.48;67.10;97724.09;1763070;81;21126;-77
2021/04/26 02:51:13;;;;;;;10.23;7.25;;;;;;;5.41;66.24;97727.24;1768320;80;21111;-77
2021/04/26 02:53:42;;;;;;;9.98;7.03;;;;;;;5.37;66.25;97732.14;1790793;80;21265;-77
2021/04/26 02:56:14;;;;;;;10.43;7.22;;;;;;;5.32;67.36;97726.08;1790752;80;21454;-78
2021/04/26 02:58:47;;;;;;;9.65;6.70;;;;;;;5.29;67.23;97733.98;1726048;83;21493;-78
2021/04/26 03:01:17;;;;;;;10.05;7.00;;;;;;;5.27;67.08;97725.23;1725245;83;21509;-79
2021/04/26 03:03:51;;;;;;;9.88;7.30;;;;;;;5.27;67.36;97728.75;1727510;82;22128;-79
2021/04/26 03:06:20;;;;;;;10.25;7.55;;;;;;;5.24;68.53;97723.98;1722724;83;21170;-79
2021/04/26 03:09:14;;;;;;;11.40;7.10;;;;;;;5.25;68.03;97725.71;1813829;79;22868;-79
2021/04/26 03:11:44;;;;;;;13.53;8.23;;;;;;;5.21;69.27;97723.58;1777023;80;21086;-78
2021/04/26 03:14:13;;;;;;;10.63;7.28;;;;;;;5.17;68.98;97731.06;1754081;80;21134;-78
2021/04/26 03:16:42;;;;;;;14.93;8.20;;;;;;;5.16;69.69;97731.96;1753899;82;21178;-77
2021/04/26 03:19:11;;;;;;;13.30;7.58;;;;;;;5.14;69.60;97737.23;1753528;81;21141;-77
2021/04/26 03:21:42;;;;;;;10.35;7.42;;;;;;;5.13;69.61;97739.44;1764018;80;21086;-77
2021/04/26 03:24:16;;;;;;;15.10;7.72;;;;;;;5.17;69.72;97742.00;1784517;80;21256;-77
2021/04/26 03:26:50;;;;;;;14.28;8.20;;;;;;;5.16;69.72;97741.16;1784762;80;21118;-77
2021/04/26 03:29:20;;;;;;;;;;;;;;;5.17;69.36;97741.57;1787530;80;21264;-77
2021/04/26 03:31:49;;;;;;;11.85;7.35;;;;;;;5.10;69.23;97744.71;1778610;80;20116;-78
2021/04/26 03:34:20;;;;;;;11.38;8.10;;;;;;;5.05;68.84;97749.58;1764203;80;21150;-77
2021/04/26 03:36:49;;;;;;;12.10;7.92;;;;;;;5.03;69.53;97744.37;1762864;80;21102;-78
2021/04/26 03:39:16;;;;;;;12.50;8.43;;;;;;;4.99;68.85;97740.03;1753760;82;21129;-77
2021/04/26 03:41:45;;;;;;;14.43;8.70;;;;;;;4.96;69.26;97749.25;1779229;80;21479;-78
2021/04/26 03:44:16;;;;;;;11.63;8.48;;;;;;;4.92;69.58;97743.59;1767336;80;21105;-78
2021/04/26 03:46:59;;;;;;;13.10;8.18;;;;;;;4.88;68.83;97748.91;1675519;80;21133;-78
2021/04/26 03:49:45;;;;;;;10.65;6.90;;;;;;;4.86;69.13;97757.22;1764020;80;21102;-78
2021/04/26 03:52:19;;;;;;;16.32;9.58;;;;;;;4.74;70.87;97762.16;1784811;80;21121;-79
2021/04/26 03:54:51;;;;;;;13.38;8.40;;;;;;;4.72;69.64;97757.38;1730105;80;21133;-78
2021/04/26 03:57:18;;;;;;;18.40;12.18;;;;;;;4.72;69.78;97774.87;1778572;80;21118;-79
2021/04/26 03:59:47;;;;;;;14.33;9.10;;;;;;;4.69;69.68;97770.98;1767519;80;21148;-78
2021/04/26 04:02:14;;;;;;;13.45;8.90;;;;;;;4.66;71.15;97777.13;1753839;82;21149;-78
2021/04/26 04:04:44;;;;;;;12.98;8.83;;;;;;;4.68;70.46;97770.53;1753851;82;21200;-78
2021/04/26 04:07:27;;;;;;;16.50;9.45;;;;;;;4.70;69.90;97774.87;1754000;80;21149;-78
2021/04/26 04:10:15;;;;;;;13.83;8.35;;;;;;;4.68;70.86;97785.84;1753931;82;21149;-78
2021/04/26 04:12:45;;;;;;;14.83;9.35;;;;;;;4.63;71.97;97791.58;1744355;82;21142;-79
2021/04/26 04:15:14;;;;;;;17.20;9.20;;;;;;;4.62;71.87;97793.78;1753814;81;21140;-79
2021/04/26 04:17:42;;;;;;;15.98;9.50;;;;;;;4.57;72.85;97803.00;1754847;80;21121;-78
2021/04/26 04:20:12;;;;;;;14.43;9.50;;;;;;;4.54;73.03;97796.91;1753512;82;21102;-78
2021/04/26 04:22:42;;;;;;;14.47;9.73;;;;;;;4.54;72.26;97810.03;1764143;80;21539;-78
2021/04/26 04:25:11;;;;;;;14.10;8.08;;;;;;;4.58;71.71;97798.63;1770351;80;21246;-78
2021/04/26 04:27:39;;;;;;;17.35;9.95;;;;;;;4.56;72.48;97805.20;1755640;80;21169;-78
2021/04/26 04:30:12;;;;;;;16.25;9.73;;;;;;;4.59;71.41;97802.98;1784233;80;21129;-78
2021/04/26 04:32:44;;;;;;;17.35;9.85;;;;;;;4.61;71.98;97807.34;1764146;80;21129;-78
2021/04/26 04:35:30;;;;;;;15.08;9.03;;;;;;;4.64;71.44;97802.97;1784169;80;21464;-77
2021/04/26 04:38:11;;;;;;;15.43;9.55;;;;;;;4.78;70.97;97804.14;1722921;80;21488;-77
2021/04/26 04:40:41;;;;;;;13.55;8.73;;;;;;;4.78;70.88;97801.52;1712903;82;21150;-76
2021/04/26 04:43:13;;;;;;;14.03;8.85;;;;;;;4.75;71.39;97801.98;1750544;82;21488;-78
2021/04/26 04:45:48;;;;;;;13.10;9.10;;;;;;;4.76;71.01;97796.28;1751421;80;21114;-77
2021/04/26 04:48:30;;;;;;;13.58;9.58;;;;;;;4.79;70.73;97813.33;1748655;80;21106;-77
2021/04/26 04:50:59;;;;;;;14.75;9.00;;;;;;;4.81;70.44;97814.63;1765376;80;21133;-77
2021/04/26 04:53:27;;;;;;;16.87;9.40;;;;;;;4.82;70.47;97818.98;1753370;81;21146;-77
2021/04/26 04:55:55;;;;;;;17.65;9.95;;;;;;;4.87;70.42;97822.44;1726123;80;21129;-77
2021/04/26 04:58:24;;;;;;;14.83;9.78;;;;;;;4.91;70.78;97834.66;1754040;80;21479;-77
2021/04/26 05:00:52;;;;;;;14.75;9.03;;;;;;;4.92;71.37;97830.26;1753282;81;21320;-78
2021/04/26 05:03:39;;;;;;;15.68;9.53;;;;;;;4.94;70.42;97829.36;1753291;81;21138;-77
2021/04/26 05:06:24;;;;;;;15.98;9.30;;;;;;;4.99;70.25;97833.27;1758640;80;21605;-78
2021/04/26 05:09:10;;;;;;;14.58;8.85;;;;;;;5.03;69.95;97845.50;1792877;80;21150;-79
2021/04/26 05:12:00;;;;;;;11.50;8.00;;;;;;;5.07;69.49;97842.39;1687405;83;21126;-77
2021/04/26 05:15:15;;;;;;;12.07;8.38;;;;;;;5.20;69.03;97841.39;1807507;78;22916;-78
2021/04/26 05:17:43;;;;;;;11.48;7.92;;;;;;;5.20;68.68;97860.21;1759015;80;21133;-78
2021/04/26 05:20:12;;;;;;;15.25;9.43;;;;;;;5.23;67.71;97845.73;1783630;80;21161;-78
2021/04/26 05:22:40;;;;;;;11.38;7.33;;;;;;;5.21;67.06;97845.75;1787245;80;21158;-79
2021/04/26 05:25:10;;;;;;;13.70;7.22;;;;;;;5.23;67.27;97843.96;1790807;80;21121;-78
2021/04/26 05:27:39;;;;;;;11.05;7.10;;;;;;;5.29;66.63;97846.98;1739871;81;21155;-79
2021/04/26 05:30:10;;;;;;;12.65;7.20;;;;;;;5.32;66.67;97862.73;1761739;80;21173;-79
2021/04/26 05:32:38;;;;;;;12.35;6.50;;;;;;;5.35;66.31;97857.42;1756718;80;21155;-76
2021/04/26 05:35:08;;;;;;;11.73;6.53;;;;;;;5.38;65.32;97856.52;1741099;81;21130;-77
2021/04/26 05:37:35;;;;;;;10.10;6.25;;;;;;;5.40;65.41;97862.64;1768339;80;21146;-78
2021/04/26 05:40:05;;;;;;;8.88;5.90;;;;;;;5.46;64.64;97861.68;1785222;80;21576;-78
2021/04/26 05:42:33;;;;;;;9.80;5.58;;;;;;;5.51;63.91;97869.07;1761301;80;21172;-78
2021/04/26 05:45:01;;;;;;;13.15;5.83;;;;;;;5.54;63.52;97867.30;1752665;81;21196;-77
2021/04/26 05:47:46;;;;;;;9.50;6.50;;;;;;;5.62;63.21;97873.78;1761632;80;21530;-77
2021/04/26 05:50:14;;;;;;;11.40;6.35;;;;;;;5.62;62.56;97875.53;1794467;80;21492;-77
2021/04/26 05:52:41;;;;;;;11.38;6.30;;;;;;;5.63;62.64;97873.32;1778786;80;21156;-79
2021/04/26 05:55:10;;;;;;;9.43;5.70;;;;;;;5.66;62.52;97880.72;1763448;81;21520;-78
2021/04/26 05:57:38;;;;;;;9.03;5.53;;;;;;;5.67;62.35;97879.86;1744033;80;21158;-78
2021/04/26 06:00:07;;;;;;;9.25;5.67;;;;;;;5.71;60.15;97891.20;1787481;79;21172;-78
2021/04/26 06:02:36;;;;;;;11.28;5.20;;;;;;;5.65;60.09;97885.56;1781894;80;21131;-78
2021/04/26 06:05:06;;;;;;;10.23;5.75;;;;;;;5.67;59.36;97896.06;1769258;80;21174;-78
2021/04/26 06:07:35;;;;;;;7.65;5.08;;;;;;;5.69;59.32;97889.02;1737365;81;21528;-78
2021/04/26 06:10:05;;;;;;;8.28;4.95;;;;;;;5.64;58.19;97891.72;1714644;82;21139;-78
2021/04/26 06:12:33;;;;;;;9.28;5.30;;;;;;;5.72;59.26;97885.52;1705799;82;21175;-78
2021/04/26 06:15:01;;;;;;;7.35;4.60;;;;;;;5.81;59.32;97904.67;1712594;83;21175;-78
2021/04/26 06:17:28;;;;;;;7.40;4.90;;;;;;;5.85;58.18;97901.55;1726032;81;21172;-78
2021/04/26 06:19:56;;;;;;;7.95;4.28;;;;;;;5.87;57.05;97913.37;1730835;83;21620;-78
2021/04/26 06:22:23;;;;;;;8.98;4.90;;;;;;;5.89;56.35;97902.38;1732170;83;21159;-78
2021/04/26 06:24:51;;;;;;;7.78;4.70;;;;;;;5.95;56.85;97901.01;1727749;83;21202;-78
2021/04/26 06:27:18;;;;;;;12.30;5.15;;;;;;;6.03;57.31;97898.31;1738773;81;21156;-84
2021/04/26 06:29:46;;;;;;;6.95;4.22;;;;;;;6.05;56.30;97903.09;1733312;81;21154;-83
2021/04/26 06:32:13;;;;;;;6.83;4.17;;;;;;;6.09;56.08;97898.69;1754989;81;21230;-79
2021/04/26 06:34:41;;;;;;;6.92;4.05;;;;;;;6.14;56.18;97900.81;1715926;83;21165;-78
2021/04/26 06:37:09;;;;;;;7.35;4.25;;;;;;;6.24;54.75;97900.22;1714476;83;21158;-79
2021/04/26 06:39:36;;;;;;;9.68;3.70;;;;;;;6.30;53.27;97910.23;1705284;83;21076;-79
2021/04/26 06:42:05;;;;;;;6.17;3.90;;;;;;;6.28;52.21;97913.34;1707685;83;21162;-78
2021/04/26 06:44:32;;;;;;;6.55;4.17;;;;;;;6.30;52.28;97912.86;1703520;83;21509;-79
2021/04/26 06:47:01;;;;;;;8.75;4.37;;;;;;;6.33;52.45;97933.00;1721714;81;21197;-79
2021/04/26 06:49:28;;;;;;;7.05;4.42;;;;;;;6.31;53.19;97915.05;1720926;81;21193;-81
2021/04/26 06:51:56;;;;;;;6.78;3.92;;;;;;;6.37;53.39;97915.39;1740807;81;21118;-81
2021/04/26 06:54:23;;;;;;;7.65;3.87;;;;;;;6.40;51.77;97925.43;1733943;81;21236;-83
2021/04/26 06:56:50;;;;;;;6.08;3.90;;;;;;;6.40;51.19;97926.75;1735782;81;21176;-83
2021/04/26 06:59:17;;;;;;;6.95;3.83;;;;;;;6.28;50.68;97923.87;1700239;82;21379;-81
2021/04/26 07:01:45;;;;;;;6.53;3.85;;;;;;;6.30;51.00;97923.39;1706068;82;21140;-79
2021/04/26 07:04:13;;;;;;;8.08;4.10;;;;;;;6.33;50.26;97926.42;1720722;82;21512;-78
2021/04/26 07:06:40;;;;;;;5.25;3.05;;;;;;;6.35;51.91;97921.99;1713077;82;21121;-79
2021/04/26 07:09:08;;;;;;;7.42;3.72;;;;;;;6.29;49.93;97917.70;1729976;82;21158;-81
2021/04/26 07:11:36;;;;;;;6.30;3.10;;;;;;;6.39;51.28;97911.85;1708730;82;21230;-80
2021/04/26 07:14:04;;;;;;;7.10;3.62;;;;;;;6.50;51.00;97906.88;1717180;82;21129;-81
2021/04/26 07:16:32;;;;;;;7.10;3.65;;;;;;;6.64;50.89;97914.59;1714170;82;21198;-80
2021/04/26 07:19:00;;;;;;;5.60;2.92;;;;;;;6.64;50.01;97910.17;1720383;81;21162;-79
2021/04/26 07:21:28;;;;;;;4.92;3.05;;;;;;;6.52;45.29;97911.69;1735154;81;21324;-80
2021/04/26 07:23:55;;;;;;;6.30;3.20;;;;;;;6.55;46.64;97901.09;1706387;82;21130;-81
2021/04/26 07:26:24;;;;;;;5.03;3.17;;;;;;;6.60;44.99;97917.69;1716597;83;21161;-79
2021/04/26 07:28:51;;;;;;;6.08;2.98;;;;;;;6.54;46.79;97913.84;1715129;82;21138;-80
2021/04/26 07:31:19;;;;;;;5.20;2.92;;;;;;;6.53;44.53;97918.26;1676974;84;21166;-81
2021/04/26 07:33:47;;;;;;;4.72;2.37;;;;;;;6.54;46.64;97923.05;1703774;83;21595;-81
2021/04/26 07:36:16;;;;;;;3.50;2.62;;;;;;;6.52;41.72;97923.54;1713332;83;21297;-82
2021/04/26 07:38:44;;;;;;;5.97;3.27;;;;;;;6.55;40.46;97928.31;1712993;83;21564;-81
2021/04/26 07:41:11;;;;;;;3.37;2.40;;;;;;;6.63;42.46;97922.05;1711242;82;21303;-82
2021/04/26 07:43:39;;;;;;;4.72;2.45;;;;;;;6.73;42.50;97916.62;1698496;82;21138;-79
2021/04/26 07:46:07;;;;;;;4.42;2.50;;;;;;;6.80;39.87;97923.10;1724233;82;21191;-81
2021/04/26 07:48:38;;;;;;;2.98;2.05;;;;;;;6.78;40.53;97927.11;1713974;82;21142;-82
2021/04/26 07:51:07;;;;;;;6.10;2.90;;;;;;;6.78;39.76;97927.11;1703726;82;21164;-82
2021/04/26 07:53:35;;;;;;;3.77;2.42;;;;;;;6.81;40.10;97915.65;1706703;82;21628;-79
2021/04/26 07:56:03;;;;;;;4.60;2.33;;;;;;;6.88;40.69;97919.91;1711862;82;21202;-83
2021/04/26 07:58:31;;;;;;;5.20;2.45;;;;;;;6.87;38.79;97922.13;1739184;81;21138;-79
2021/04/26 08:00:58;;;;;;;6.75;2.65;;;;;;;7.00;39.05;97927.64;1732457;82;21194;-80
2021/04/26 08:03:26;;;;;;;5.40;2.40;;;;;;;7.13;40.73;97912.92;1718641;82;21193;-79
2021/04/26 08:05:54;;;;;;;5.03;2.70;;;;;;;7.23;38.53;97934.73;1701022;82;21572;-81
2021/04/26 08:08:22;;;;;;;4.47;1.85;;;;;;;7.25;38.28;97931.17;1707916;82;21595;-82
2021/04/26 08:10:50;;;;;;;3.52;2.22;;;;;;;7.21;37.02;97919.38;1716034;82;21213;-80
2021/04/26 08:13:18;;;;;;;2.85;2.00;;;;;;;7.29;38.08;97915.28;1698027;82;21166;-80
2021/04/26 08:15:45;;;;;;;5.92;2.20;;;;;;;7.40;35.53;97917.30;1705381;83;21528;-81
2021/04/26 08:18:12;;;;;;;5.42;2.30;;;;;;;7.48;36.40;97921.12;1719350;82;21690;-80
2021/04/26 08:20:41;;;;;;;4.42;2.27;;;;;;;7.59;37.36;97923.53;1710480;83;21500;-80
2021/04/26 08:23:09;;;;;;;3.45;2.33;;;;;;;7.61;35.18;97936.27;1709325;82;21142;-78
2021/04/26 08:25:37;;;;;;;5.40;1.92;;;;;;;7.60;35.27;97929.25;1713118;82;21430;-80
2021/04/26 08:28:05;;;;;;;3.75;2.27;;;;;;;7.56;33.03;97924.46;1715558;82;21533;-80
2021/04/26 08:30:33;;;;;;;4.95;2.50;;;;;;;7.63;35.10;97919.95;1713520;82;21512;-77
2021/04/26 08:33:00;;;;;;;3.20;1.75;;;;;;;7.70;36.02;97924.22;1715408;82;21149;-79
2021/04/26 08:35:28;;;;;;;3.55;2.20;;;;;;;7.73;33.27;97916.23;1700648;83;21139;-78
2021/04/26 08:37:57;;;;;;;6.50;1.98;;;;;;;7.73;33.99;97913.59;1705274;83;21520;-80
2021/04/26 08:40:24;;;;;;;4.28;2.22;;;;;;;7.70;34.56;97910.15;1708485;82;21147;-79
2021/04/26 08:42:52;;;;;;;3.60;1.87;;;;;;;7.77;33.62;97914.42;1721760;82;21552;-80
2021/04/26 08:45:20;;;;;;;4.30;2.27;;;;;;;7.84;34.60;97905.47;1726684;82;21177;-81
2021/04/26 08:47:48;;;;;;;4.22;1.80;;;;;;;7.93;35.01;97918.92;1733841;82;21579;-79
2021/04/26 08:50:16;;;;;;;3.95;2.00;;;;;;;7.97;32.06;97925.03;1734429;82;21354;-79
2021/04/26 08:52:43;;;;;;;4.00;2.12;;;;;;;7.90;29.30;97926.45;1694113;83;21217;-80
2021/04/26 08:55:12;;;;;;;6.40;2.00;;;;;;;7.77;29.81;97926.30;1712247;83;21161;-79
2021/04/26 08:57:39;;;;;;;4.22;1.62;;;;;;;7.65;28.49;97951.98;1717073;82;21190;-80
2021/04/26 09:00:08;;;;;;;20.92;11.38;;;;;;;7.68;30.20;97940.98;1714721;82;21178;-79
2021/04/26 09:02:56;;;;;;;4.47;2.47;;;;;;;7.62;30.73;97923.05;1698420;83;21181;-78
2021/04/26 09:05:36;;;;;;;4.78;2.00;;;;;;;7.65;31.72;97912.42;1702750;83;21647;-78
2021/04/26 09:08:13;;;;;;;5.00;1.87;;;;;;;7.75;31.75;97927.64;1715186;83;21161;-80
2021/04/26 09:10:46;;;;;;;4.00;1.50;;;;;;;7.90;31.34;97929.09;1694038;82;21276;-78
2021/04/26 09:13:42;;;;;;;3.22;1.80;;;;;;;7.95;30.16;97929.02;1711525;83;21166;-80
2021/04/26 09:16:19;;;;;;;2.60;1.70;;;;;;;7.85;29.89;97927.47;1716972;83;21537;-79
2021/04/26 09:19:07;;;;;;;2.92;1.62;;;;;;;7.88;30.73;97915.51;1709489;83;21154;-80
2021/04/26 09:21:44;;;;;;;2.60;1.62;;;;;;;7.99;31.37;97931.14;1725904;81;21209;-82
2021/04/26 09:24:34;;;;;;;5.50;2.40;;;;;;;8.02;30.64;97914.78;1689595;83;21509;-76
2021/04/26 09:27:15;;;;;;;3.12;1.75;;;;;;;8.17;32.55;97914.05;1683608;84;21170;-79
2021/04/26 09:29:42;;;;;;;3.17;1.70;;;;;;;8.32;32.27;97902.30;1705675;82;21209;-81
2021/04/26 09:32:19;;;;;;;3.05;1.92;;;;;;;8.43;32.31;97891.03;1738311;81;21114;-76
2021/04/26 09:34:53;;;;;;;4.75;2.02;;;;;;;8.46;29.95;97901.98;1731326;81;21439;-76
2021/04/26 09:37:26;;;;;;;2.92;1.82;;;;;;;8.43;30.12;97883.11;1737065;81;21488;-75
2021/04/26 09:40:12;;;;;;;4.45;1.67;;;;;;;8.55;29.79;97878.47;1741393;82;21120;-78
2021/04/26 09:42:56;;;;;;;4.00;1.72;;;;;;;8.69;31.76;97874.20;1705557;82;21141;-81
2021/04/26 09:45:34;;;;;;;2.67;1.80;;;;;;;8.91;32.05;97884.24;1725426;82;21139;-81
2021/04/26 09:48:20;;;;;;;4.15;1.65;;;;;;;9.02;29.82;97885.30;1718035;83;21168;-85
2021/04/26 09:51:20;;;;;;;5.50;2.00;;;;;;;9.13;29.50;97883.72;1678242;82;21208;-80
2021/04/26 09:53:54;;;;;;;3.98;1.87;;;;;;;9.21;29.60;97883.93;1725079;82;21503;-85
2021/04/26 09:56:30;;;;;;;2.87;1.80;;;;;;;9.33;30.26;97885.39;1721137;82;21565;-82
2021/04/26 09:59:02;;;;;;;2.52;1.62;;;;;;;9.42;31.02;97871.04;1708702;82;21205;-85
2021/04/26 10:01:32;;;;;;;3.50;1.70;;;;;;;9.57;28.93;97879.03;1700602;82;21476;-80
2021/04/26 10:04:02;;;;;;;4.42;2.27;;;;;;;9.61;30.57;97863.48;1706097;83;21185;-81
2021/04/26 10:06:31;;;;;;;3.25;1.70;;;;;;;9.77;30.83;97882.90;1705299;83;21567;-81
2021/04/26 10:09:04;;;;;;;3.08;1.55;;;;;;;9.76;29.52;97869.27;1713243;83;21166;-82
2021/04/26 10:11:34;;;;;;;3.05;1.60;;;;;;;9.90;28.27;97875.03;1706071;83;21150;-82
2021/04/26 10:14:20;;;;;;;3.00;1.70;;;;;;;9.85;28.08;97859.70;1725927;81;21500;-82
2021/04/26 10:16:59;;;;;;;;;;;;;;;9.88;29.53;97847.72;1715195;83;21198;-78
2021/04/26 10:19:49;;;;;;;3.98;1.52;;;;;;;9.98;28.62;97850.09;1727004;81;20203;-78
2021/04/26 10:22:38;;;;;;;3.95;2.10;;;;;;;10.17;29.29;97834.52;1707721;83;21551;-79
2021/04/26 10:25:09;;;;;;;2.75;1.85;;;;;;;10.33;27.36;97836.72;1720600;82;21190;-78
2021/04/26 10:27:41;;;;;;;4.70;1.95;;;;;;;10.43;28.45;97832.86;1712903;83;21228;-78
2021/04/26 10:30:21;;;;;;;4.92;1.80;;;;;;;10.70;27.15;97842.18;1713555;83;21308;-77
2021/04/26 10:33:06;;;;;;;3.45;1.95;;;;;;;10.90;29.36;97826.95;1715674;83;21535;-77
2021/04/26 10:35:52;;;;;;;2.90;1.57;;;;;;;11.14;28.14;97830.14;1715608;82;21619;-78
2021/04/26 10:38:46;;;;;;;3.05;1.57;;;;;;;11.49;28.36;97825.37;1723012;82;21545;-80
2021/04/26 10:41:48;;;;;;;3.55;1.87;;;;;;;12.12;27.55;97808.91;1724517;83;21186;-79
2021/04/26 10:44:39;;;;;;;3.90;1.82;;;;;;;13.23;25.53;97815.52;1709672;83;21639;-81
2021/04/26 10:47:28;;;;;;;3.27;1.92;;;;;;;14.25;23.60;97800.28;1730370;83;21191;-80
2021/04/26 10:50:08;;;;;;;4.45;2.00;;;;;;;15.61;24.81;97791.38;1712783;82;21210;-79
2021/04/26 10:52:42;;;;;;;2.95;2.00;;;;;;;16.76;23.56;97789.94;1690802;83;21202;-80
2021/04/26 10:55:23;;;;;;;3.52;1.72;;;;;;;17.37;19.31;97785.54;1732882;81;21169;-80
2021/04/26 10:58:20;;;;;;;4.35;2.00;;;;;;;17.79;20.86;97780.30;1729967;81;21135;-82
2021/04/26 11:00:49;;;;;;;2.65;1.92;;;;;;;18.65;19.84;97776.23;1640121;84;21190;-82
2021/04/26 11:03:25;;;;;;;2.40;1.65;;;;;;;19.38;20.27;97775.38;1633167;85;21188;-81
2021/04/26 11:05:54;;;;;;;3.67;1.85;;;;;;;20.06;18.37;97761.73;1640028;86;21593;-83
2021/04/26 11:11:12;;;;;;;3.17;2.20;;;;;;;20.38;17.49;97745.54;1640129;85;21169;-80
2021/04/26 11:13:53;;;;;;;2.87;2.00;;;;;;;20.49;17.95;97756.36;1634476;86;21146;-81
2021/04/26 11:16:30;;;;;;;3.00;2.20;;;;;;;20.86;17.79;97748.72;1639014;86;21166;-82
2021/04/26 11:19:05;;;;;;;2.42;2.02;;;;;;;20.91;15.34;97739.80;1696669;83;21176;-81
2021/04/26 11:21:49;;;;;;;5.08;1.80;;;;;;;21.06;16.35;97744.99;1689304;83;21157;-79
2021/04/26 11:24:30;;;;;;;3.30;2.10;;;;;;;21.63;17.39;97736.98;1677564;83;21168;-83
2021/04/26 11:27:15;;;;;;;3.50;2.10;;;;;;;22.02;17.13;97732.09;1667386;83;21190;-79
2021/04/26 11:29:49;;;;;;;2.62;1.95;;;;;;;21.72;15.24;97743.02;1651374;83;21166;-80
2021/04/26 11:32:19;;;;;;;2.42;1.90;;;;;;;21.48;17.23;97735.89;1661872;83;21199;-81
2021/04/26 11:34:56;;;;;;;3.65;1.80;;;;;;;21.80;15.98;97726.22;1639225;86;22358;-81
2021/04/26 11:37:31;;;;;;;3.45;2.08;;;;;;;22.19;16.92;97732.58;1683916;83;21126;-81
2021/04/26 11:39:58;;;;;;;3.30;2.00;;;;;;;22.64;15.64;97732.11;1679278;83;21209;-80
2021/04/26 11:42:31;;;;;;;3.02;1.87;;;;;;;21.20;14.34;97725.92;1685144;83;21146;-78
2021/04/26 11:45:04;;;;;;;2.83;2.00;;;;;;;21.26;16.06;97729.95;1704204;83;21193;-78
2021/04/26 11:47:33;;;;;;;3.40;2.25;;;;;;;21.13;15.10;97721.13;1689261;83;21233;-79
2021/04/26 11:50:03;;;;;;;3.83;2.12;;;;;;;20.91;14.42;97722.77;1635908;85;21159;-78
2021/04/26 11:52:35;;;;;;;3.08;2.05;;;;;;;21.28;16.60;97716.36;1646451;85;21545;-79
2021/04/26 11:55:07;;;;;;;3.12;1.98;;;;;;;21.65;14.96;97711.25;1637434;85;21146;-80
2021/04/26 11:57:55;;;;;;;3.45;2.10;;;;;;;21.88;15.59;97710.29;1679129;83;21146;-80
2021/04/26 12:00:30;;;;;;;2.92;2.00;;;;;;;21.38;15.40;97703.88;1678849;83;21531;-81
2021/04/26 12:03:11;;;;;;;4.42;2.00;;;;;;;21.74;15.44;97699.75;1684038;83;21153;-81
2021/04/26 12:05:39;;;;;;;3.08;2.08;;;;;;;21.89;16.81;97682.84;1680333;83;21205;-80